sensor_id;sensor_type;location;lat;lon;timestamp;pressure;altitude;pressure_sealevel;temperature;humidity
12358;BME280;6243;51.244;6.774;2024-01-11T00:00:58;115150.97;;;-141.28;39.90
12358;BME280;6243;51.244;6.774;2024-01-11T00:03:23;115150.97;;;-141.28;39.27
12358;BME280;6243;51.244;6.774;2024-01-11T00:05:49;115150.97;;;-141.28;39.00
12358;BME280;6243;51.244;6.774;2024-01-11T00:08:14;115150.97;;;-141.28;39.69
12358;BME280;6243;51.244;6.774;2024-01-11T00:10:40;115150.97;;;-141.28;40.45
12358;BME280;6243;51.244;6.774;2024-01-11T00:13:06;115150.97;;;-141.28;39.91
12358;BME280;6243;51.244;6.774;2024-01-11T00:15:32;115150.97;;;-141.28;39.39
12358;BME280;6243;51.244;6.774;2024-01-11T00:17:58;115150.97;;;-141.28;39.27
12358;BME280;6243;51.244;6.774;2024-01-11T00:20:23;115150.97;;;-141.28;38.60
12358;BME280;6243;51.244;6.774;2024-01-11T00:22:49;115150.97;;;-141.28;38.84
12358;BME280;6243;51.244;6.774;2024-01-11T00:25:14;115150.97;;;-141.28;38.46
12358;BME280;6243;51.244;6.774;2024-01-11T00:27:43;115150.97;;;-141.28;38.84
12358;BME280;6243;51.244;6.774;2024-01-11T00:30:09;115150.97;;;-141.28;39.02
12358;BME280;6243;51.244;6.774;2024-01-11T00:32:36;115150.97;;;-141.28;38.48
12358;BME280;6243;51.244;6.774;2024-01-11T00:35:01;115150.97;;;-141.28;38.78
12358;BME280;6243;51.244;6.774;2024-01-11T00:37:27;115150.97;;;-141.28;38.41
12358;BME280;6243;51.244;6.774;2024-01-11T00:39:52;115150.97;;;-141.28;38.05
12358;BME280;6243;51.244;6.774;2024-01-11T00:42:18;115150.97;;;-141.28;38.82
12358;BME280;6243;51.244;6.774;2024-01-11T00:44:43;115150.97;;;-141.28;38.51
12358;BME280;6243;51.244;6.774;2024-01-11T00:47:09;115150.97;;;-141.28;38.48
12358;BME280;6243;51.244;6.774;2024-01-11T00:49:36;115150.97;;;-141.28;38.30
12358;BME280;6243;51.244;6.774;2024-01-11T00:52:01;115150.97;;;-141.28;38.28
12358;BME280;6243;51.244;6.774;2024-01-11T00:54:26;115150.97;;;-141.28;38.51
12358;BME280;6243;51.244;6.774;2024-01-11T00:56:52;115150.97;;;-141.28;38.49
12358;BME280;6243;51.244;6.774;2024-01-11T00:59:17;115150.97;;;-141.28;38.63
12358;BME280;6243;51.244;6.774;2024-01-11T01:01:47;115150.97;;;-141.28;38.45
12358;BME280;6243;51.244;6.774;2024-01-11T01:04:12;115150.97;;;-141.28;38.48
12358;BME280;6243;51.244;6.774;2024-01-11T01:06:39;115150.97;;;-141.28;38.70
12358;BME280;6243;51.244;6.774;2024-01-11T01:09:06;115150.97;;;-141.28;38.66
12358;BME280;6243;51.244;6.774;2024-01-11T01:11:31;115150.97;;;-141.28;38.38
12358;BME280;6243;51.244;6.774;2024-01-11T01:13:57;115150.97;;;-141.28;38.25
12358;BME280;6243;51.244;6.774;2024-01-11T01:16:22;115150.97;;;-141.28;38.99
12358;BME280;6243;51.244;6.774;2024-01-11T01:18:48;115150.97;;;-141.28;38.29
12358;BME280;6243;51.244;6.774;2024-01-11T01:21:13;115150.97;;;-141.28;38.58
12358;BME280;6243;51.244;6.774;2024-01-11T01:23:40;115150.97;;;-141.28;38.25
12358;BME280;6243;51.244;6.774;2024-01-11T01:26:06;115150.97;;;-141.28;38.22
12358;BME280;6243;51.244;6.774;2024-01-11T01:28:32;115150.97;;;-141.28;38.37
12358;BME280;6243;51.244;6.774;2024-01-11T01:30:57;115150.97;;;-141.28;38.81
12358;BME280;6243;51.244;6.774;2024-01-11T01:33:23;115150.97;;;-141.28;38.98
12358;BME280;6243;51.244;6.774;2024-01-11T01:35:48;115150.97;;;-141.28;38.71
12358;BME280;6243;51.244;6.774;2024-01-11T01:38:14;115150.97;;;-141.28;39.06
12358;BME280;6243;51.244;6.774;2024-01-11T01:40:41;115150.97;;;-141.28;38.71
12358;BME280;6243;51.244;6.774;2024-01-11T01:43:07;115150.97;;;-141.28;38.46
12358;BME280;6243;51.244;6.774;2024-01-11T01:45:32;115150.97;;;-141.28;38.90
12358;BME280;6243;51.244;6.774;2024-01-11T01:47:58;115150.97;;;-141.28;38.83
12358;BME280;6243;51.244;6.774;2024-01-11T01:50:24;115150.97;;;-141.28;38.40
12358;BME280;6243;51.244;6.774;2024-01-11T01:52:50;115150.97;;;-141.28;38.55
12358;BME280;6243;51.244;6.774;2024-01-11T01:55:15;115150.97;;;-141.28;38.71
12358;BME280;6243;51.244;6.774;2024-01-11T01:57:43;115150.97;;;-141.28;39.12
12358;BME280;6243;51.244;6.774;2024-01-11T02:00:11;115150.97;;;-141.28;38.99
12358;BME280;6243;51.244;6.774;2024-01-11T02:02:37;115150.97;;;-141.28;38.58
12358;BME280;6243;51.244;6.774;2024-01-11T02:05:04;115150.97;;;-141.28;38.58
12358;BME280;6243;51.244;6.774;2024-01-11T02:07:30;115150.97;;;-141.28;38.78
12358;BME280;6243;51.244;6.774;2024-01-11T02:09:55;115150.97;;;-141.28;39.13
12358;BME280;6243;51.244;6.774;2024-01-11T02:12:22;115150.97;;;-141.28;38.65
12358;BME280;6243;51.244;6.774;2024-01-11T02:14:50;115150.97;;;-141.28;38.81
12358;BME280;6243;51.244;6.774;2024-01-11T02:17:15;115150.97;;;-141.28;38.87
12358;BME280;6243;51.244;6.774;2024-01-11T02:19:41;115150.97;;;-141.28;39.02
12358;BME280;6243;51.244;6.774;2024-01-11T02:22:12;115150.97;;;-141.28;38.59
12358;BME280;6243;51.244;6.774;2024-01-11T02:24:39;115150.97;;;-141.28;38.94
12358;BME280;6243;51.244;6.774;2024-01-11T02:27:05;115150.97;;;-141.28;39.03
12358;BME280;6243;51.244;6.774;2024-01-11T02:29:31;115150.97;;;-141.28;39.04
12358;BME280;6243;51.244;6.774;2024-01-11T02:31:58;115150.97;;;-141.28;38.78
12358;BME280;6243;51.244;6.774;2024-01-11T02:34:24;115150.97;;;-141.28;38.83
12358;BME280;6243;51.244;6.774;2024-01-11T02:36:51;115150.97;;;-141.28;38.94
12358;BME280;6243;51.244;6.774;2024-01-11T02:39:19;115150.97;;;-141.28;39.11
12358;BME280;6243;51.244;6.774;2024-01-11T02:41:47;115150.97;;;-141.28;38.83
12358;BME280;6243;51.244;6.774;2024-01-11T02:44:13;115150.97;;;-141.28;39.70
12358;BME280;6243;51.244;6.774;2024-01-11T02:46:38;115150.97;;;-141.28;39.21
12358;BME280;6243;51.244;6.774;2024-01-11T02:49:04;115150.97;;;-141.28;39.14
12358;BME280;6243;51.244;6.774;2024-01-11T02:51:29;115150.97;;;-141.28;39.43
12358;BME280;6243;51.244;6.774;2024-01-11T02:53:55;115150.97;;;-141.28;39.98
12358;BME280;6243;51.244;6.774;2024-01-11T02:56:20;115150.97;;;-141.28;39.16
12358;BME280;6243;51.244;6.774;2024-01-11T02:58:47;115150.97;;;-141.28;39.35
12358;BME280;6243;51.244;6.774;2024-01-11T03:01:13;115150.97;;;-141.28;39.12
12358;BME280;6243;51.244;6.774;2024-01-11T03:03:38;115150.97;;;-141.28;38.92
12358;BME280;6243;51.244;6.774;2024-01-11T03:06:04;115150.97;;;-141.28;38.75
12358;BME280;6243;51.244;6.774;2024-01-11T03:08:29;115150.97;;;-141.28;39.09
12358;BME280;6243;51.244;6.774;2024-01-11T03:10:55;115150.97;;;-141.28;39.23
12358;BME280;6243;51.244;6.774;2024-01-11T03:13:20;115150.97;;;-141.28;39.18
12358;BME280;6243;51.244;6.774;2024-01-11T03:15:47;115150.97;;;-141.28;39.22
12358;BME280;6243;51.244;6.774;2024-01-11T03:18:13;115150.97;;;-141.28;39.34
12358;BME280;6243;51.244;6.774;2024-01-11T03:20:38;115150.97;;;-141.28;39.30
12358;BME280;6243;51.244;6.774;2024-01-11T03:23:04;115150.97;;;-141.28;39.70
12358;BME280;6243;51.244;6.774;2024-01-11T03:25:29;115150.97;;;-141.28;39.45
12358;BME280;6243;51.244;6.774;2024-01-11T03:27:55;115150.97;;;-141.28;39.88
12358;BME280;6243;51.244;6.774;2024-01-11T03:30:20;115150.97;;;-141.28;40.06
12358;BME280;6243;51.244;6.774;2024-01-11T03:32:47;115150.97;;;-141.28;39.60
12358;BME280;6243;51.244;6.774;2024-01-11T03:35:13;115150.97;;;-141.28;39.57
12358;BME280;6243;51.244;6.774;2024-01-11T03:37:38;115150.97;;;-141.28;39.19
12358;BME280;6243;51.244;6.774;2024-01-11T03:40:05;115150.97;;;-141.28;39.07
12358;BME280;6243;51.244;6.774;2024-01-11T03:42:30;115150.97;;;-141.28;40.17
12358;BME280;6243;51.244;6.774;2024-01-11T03:44:56;115150.97;;;-141.28;40.14
12358;BME280;6243;51.244;6.774;2024-01-11T03:47:21;115150.97;;;-141.28;40.11
12358;BME280;6243;51.244;6.774;2024-01-11T03:49:48;115150.97;;;-141.28;39.72
12358;BME280;6243;51.244;6.774;2024-01-11T03:52:14;115150.97;;;-141.28;39.79
12358;BME280;6243;51.244;6.774;2024-01-11T03:54:39;115150.97;;;-141.28;39.78
12358;BME280;6243;51.244;6.774;2024-01-11T03:57:05;115150.97;;;-141.28;40.19
12358;BME280;6243;51.244;6.774;2024-01-11T03:59:30;115150.97;;;-141.28;39.75
12358;BME280;6243;51.244;6.774;2024-01-11T04:01:57;115150.97;;;-141.28;39.77
12358;BME280;6243;51.244;6.774;2024-01-11T04:04:23;115150.97;;;-141.28;39.40
12358;BME280;6243;51.244;6.774;2024-01-11T04:06:51;115150.97;;;-141.28;39.65
12358;BME280;6243;51.244;6.774;2024-01-11T04:09:16;115150.97;;;-141.28;39.47
12358;BME280;6243;51.244;6.774;2024-01-11T04:11:42;115150.97;;;-141.28;39.24
12358;BME280;6243;51.244;6.774;2024-01-11T04:14:07;115150.97;;;-141.28;40.42
12358;BME280;6243;51.244;6.774;2024-01-11T04:16:33;115150.97;;;-141.28;39.90
12358;BME280;6243;51.244;6.774;2024-01-11T04:18:59;115150.97;;;-141.28;39.94
12358;BME280;6243;51.244;6.774;2024-01-11T04:21:25;115150.97;;;-141.28;39.70
12358;BME280;6243;51.244;6.774;2024-01-11T04:23:52;115150.97;;;-141.28;40.61
12358;BME280;6243;51.244;6.774;2024-01-11T04:26:17;115150.97;;;-141.28;40.07
12358;BME280;6243;51.244;6.774;2024-01-11T04:28:44;115150.97;;;-141.28;40.49
12358;BME280;6243;51.244;6.774;2024-01-11T04:31:09;115150.97;;;-141.28;40.51
12358;BME280;6243;51.244;6.774;2024-01-11T04:33:35;115150.97;;;-141.28;40.29
12358;BME280;6243;51.244;6.774;2024-01-11T04:36:00;115150.97;;;-141.28;39.65
12358;BME280;6243;51.244;6.774;2024-01-11T04:38:26;115150.97;;;-141.28;39.58
12358;BME280;6243;51.244;6.774;2024-01-11T04:40:52;115150.97;;;-141.28;39.52
12358;BME280;6243;51.244;6.774;2024-01-11T04:43:18;115150.97;;;-141.28;40.03
12358;BME280;6243;51.244;6.774;2024-01-11T04:45:43;115150.97;;;-141.28;38.96
12358;BME280;6243;51.244;6.774;2024-01-11T04:48:09;115150.97;;;-141.28;39.50
12358;BME280;6243;51.244;6.774;2024-01-11T04:50:34;115150.97;;;-141.28;40.44
12358;BME280;6243;51.244;6.774;2024-01-11T04:53:00;115150.97;;;-141.28;39.61
12358;BME280;6243;51.244;6.774;2024-01-11T04:55:25;115150.97;;;-141.28;39.62
12358;BME280;6243;51.244;6.774;2024-01-11T04:57:52;115150.97;;;-141.28;40.09
12358;BME280;6243;51.244;6.774;2024-01-11T05:00:18;115150.97;;;-141.28;40.90
12358;BME280;6243;51.244;6.774;2024-01-11T05:02:44;115150.97;;;-141.28;41.01
12358;BME280;6243;51.244;6.774;2024-01-11T05:05:09;115150.97;;;-141.28;40.59
12358;BME280;6243;51.244;6.774;2024-01-11T05:07:35;115150.97;;;-141.28;41.10
12358;BME280;6243;51.244;6.774;2024-01-11T05:10:00;115150.97;;;-141.28;41.45
12358;BME280;6243;51.244;6.774;2024-01-11T05:12:26;115150.97;;;-141.28;41.71
12358;BME280;6243;51.244;6.774;2024-01-11T05:14:52;115150.97;;;-141.28;42.03
12358;BME280;6243;51.244;6.774;2024-01-11T05:17:18;115150.97;;;-141.28;42.19
12358;BME280;6243;51.244;6.774;2024-01-11T05:19:43;115150.97;;;-141.28;42.85
12358;BME280;6243;51.244;6.774;2024-01-11T05:22:09;115150.97;;;-141.28;42.38
12358;BME280;6243;51.244;6.774;2024-01-11T05:24:34;115150.97;;;-141.28;41.64
12358;BME280;6243;51.244;6.774;2024-01-11T05:27:00;115150.97;;;-141.28;40.85
12358;BME280;6243;51.244;6.774;2024-01-11T05:29:25;115150.97;;;-141.28;40.43
12358;BME280;6243;51.244;6.774;2024-01-11T05:31:52;115150.97;;;-141.28;41.20
12358;BME280;6243;51.244;6.774;2024-01-11T05:34:18;115150.97;;;-141.28;41.44
12358;BME280;6243;51.244;6.774;2024-01-11T05:36:43;115150.97;;;-141.28;40.86
12358;BME280;6243;51.244;6.774;2024-01-11T05:39:09;115150.97;;;-141.28;41.36
12358;BME280;6243;51.244;6.774;2024-01-11T05:41:34;115150.97;;;-141.28;40.79
12358;BME280;6243;51.244;6.774;2024-01-11T05:44:00;115150.97;;;-141.28;40.86
12358;BME280;6243;51.244;6.774;2024-01-11T05:46:25;115150.97;;;-141.28;40.24
12358;BME280;6243;51.244;6.774;2024-01-11T05:48:52;115150.97;;;-141.28;39.99
12358;BME280;6243;51.244;6.774;2024-01-11T05:51:17;115150.97;;;-141.28;39.88
12358;BME280;6243;51.244;6.774;2024-01-11T05:53:43;115150.97;;;-141.28;40.11
12358;BME280;6243;51.244;6.774;2024-01-11T05:56:08;115150.97;;;-141.28;40.72
12358;BME280;6243;51.244;6.774;2024-01-11T05:58:34;115150.97;;;-141.28;40.77
12358;BME280;6243;51.244;6.774;2024-01-11T06:01:00;115150.97;;;-141.28;40.90
12358;BME280;6243;51.244;6.774;2024-01-11T06:03:25;115150.97;;;-141.28;40.71
12358;BME280;6243;51.244;6.774;2024-01-11T06:05:52;115150.97;;;-141.28;40.66
12358;BME280;6243;51.244;6.774;2024-01-11T06:08:18;115150.97;;;-141.28;40.13
12358;BME280;6243;51.244;6.774;2024-01-11T06:10:43;115150.97;;;-141.28;40.46
12358;BME280;6243;51.244;6.774;2024-01-11T06:13:09;115150.97;;;-141.28;40.14
12358;BME280;6243;51.244;6.774;2024-01-11T06:15:34;115150.97;;;-141.28;40.78
12358;BME280;6243;51.244;6.774;2024-01-11T06:18:00;115150.97;;;-141.28;40.39
12358;BME280;6243;51.244;6.774;2024-01-11T06:20:25;115150.97;;;-141.28;40.39
12358;BME280;6243;51.244;6.774;2024-01-11T06:22:52;115150.97;;;-141.28;39.84
12358;BME280;6243;51.244;6.774;2024-01-11T06:25:18;115150.97;;;-141.28;40.03
12358;BME280;6243;51.244;6.774;2024-01-11T06:27:43;115150.97;;;-141.28;40.82
12358;BME280;6243;51.244;6.774;2024-01-11T06:30:09;115150.97;;;-141.28;40.33
12358;BME280;6243;51.244;6.774;2024-01-11T06:32:35;115150.97;;;-141.28;40.08
12358;BME280;6243;51.244;6.774;2024-01-11T06:35:00;115150.97;;;-141.28;40.01
12358;BME280;6243;51.244;6.774;2024-01-11T06:37:26;115150.97;;;-141.28;39.80
12358;BME280;6243;51.244;6.774;2024-01-11T06:39:53;115150.97;;;-141.28;39.83
12358;BME280;6243;51.244;6.774;2024-01-11T06:42:18;115150.97;;;-141.28;39.49
12358;BME280;6243;51.244;6.774;2024-01-11T06:44:44;115150.97;;;-141.28;39.37
12358;BME280;6243;51.244;6.774;2024-01-11T06:47:09;115150.97;;;-141.28;39.78
12358;BME280;6243;51.244;6.774;2024-01-11T06:49:38;115150.97;;;-141.28;40.15
12358;BME280;6243;51.244;6.774;2024-01-11T06:52:04;115150.97;;;-141.28;39.22
12358;BME280;6243;51.244;6.774;2024-01-11T06:54:29;115150.97;;;-141.28;39.12
12358;BME280;6243;51.244;6.774;2024-01-11T06:56:56;115150.97;;;-141.28;39.75
12358;BME280;6243;51.244;6.774;2024-01-11T06:59:21;115150.97;;;-141.28;40.02
12358;BME280;6243;51.244;6.774;2024-01-11T07:01:47;115150.97;;;-141.28;40.49
12358;BME280;6243;51.244;6.774;2024-01-11T07:04:12;115150.97;;;-141.28;39.82
12358;BME280;6243;51.244;6.774;2024-01-11T07:06:38;115150.97;;;-141.28;39.80
12358;BME280;6243;51.244;6.774;2024-01-11T07:09:03;115150.97;;;-141.28;40.03
12358;BME280;6243;51.244;6.774;2024-01-11T07:11:29;115150.97;;;-141.28;40.04
12358;BME280;6243;51.244;6.774;2024-01-11T07:13:56;115150.97;;;-141.28;40.32
12358;BME280;6243;51.244;6.774;2024-01-11T07:16:21;115150.97;;;-141.28;40.60
12358;BME280;6243;51.244;6.774;2024-01-11T07:18:47;115150.97;;;-141.28;40.70
12358;BME280;6243;51.244;6.774;2024-01-11T07:21:12;115150.97;;;-141.28;40.16
12358;BME280;6243;51.244;6.774;2024-01-11T07:23:38;115150.97;;;-141.28;40.44
12358;BME280;6243;51.244;6.774;2024-01-11T07:26:03;115150.97;;;-141.28;39.99
12358;BME280;6243;51.244;6.774;2024-01-11T07:28:29;115150.97;;;-141.28;40.24
12358;BME280;6243;51.244;6.774;2024-01-11T07:30:56;115150.97;;;-141.28;39.92
12358;BME280;6243;51.244;6.774;2024-01-11T07:33:21;115150.97;;;-141.28;40.34
12358;BME280;6243;51.244;6.774;2024-01-11T07:35:47;115150.97;;;-141.28;40.20
12358;BME280;6243;51.244;6.774;2024-01-11T07:38:12;115150.97;;;-141.28;39.65
12358;BME280;6243;51.244;6.774;2024-01-11T07:40:38;115150.97;;;-141.28;40.23
12358;BME280;6243;51.244;6.774;2024-01-11T07:43:04;115150.97;;;-141.28;40.03
12358;BME280;6243;51.244;6.774;2024-01-11T07:45:29;115150.97;;;-141.28;39.99
12358;BME280;6243;51.244;6.774;2024-01-11T07:47:56;115150.97;;;-141.28;40.10
12358;BME280;6243;51.244;6.774;2024-01-11T07:50:22;115150.97;;;-141.28;39.70
12358;BME280;6243;51.244;6.774;2024-01-11T07:52:47;115150.97;;;-141.28;39.65
12358;BME280;6243;51.244;6.774;2024-01-11T07:55:13;115150.97;;;-141.28;39.76
12358;BME280;6243;51.244;6.774;2024-01-11T07:57:39;115150.97;;;-141.28;39.80
12358;BME280;6243;51.244;6.774;2024-01-11T08:00:05;115150.97;;;-141.28;39.88
12358;BME280;6243;51.244;6.774;2024-01-11T08:02:31;115150.97;;;-141.28;40.14
12358;BME280;6243;51.244;6.774;2024-01-11T08:04:58;115150.97;;;-141.28;40.20
12358;BME280;6243;51.244;6.774;2024-01-11T08:07:24;115150.97;;;-141.28;40.00
12358;BME280;6243;51.244;6.774;2024-01-11T08:09:49;115150.97;;;-141.28;40.66
12358;BME280;6243;51.244;6.774;2024-01-11T08:12:15;115150.97;;;-141.28;39.94
12358;BME280;6243;51.244;6.774;2024-01-11T08:14:40;115150.97;;;-141.28;39.80
12358;BME280;6243;51.244;6.774;2024-01-11T08:17:06;115150.97;;;-141.28;40.05
12358;BME280;6243;51.244;6.774;2024-01-11T08:19:31;115150.97;;;-141.28;39.93
12358;BME280;6243;51.244;6.774;2024-01-11T08:21:58;115150.97;;;-141.28;39.35
12358;BME280;6243;51.244;6.774;2024-01-11T08:24:24;115150.97;;;-141.28;40.08
12358;BME280;6243;51.244;6.774;2024-01-11T08:26:49;115150.97;;;-141.28;40.06
12358;BME280;6243;51.244;6.774;2024-01-11T08:29:15;115150.97;;;-141.28;39.60
12358;BME280;6243;51.244;6.774;2024-01-11T08:31:40;115150.97;;;-141.28;39.89
12358;BME280;6243;51.244;6.774;2024-01-11T08:34:06;115150.97;;;-141.28;39.90
12358;BME280;6243;51.244;6.774;2024-01-11T08:36:31;115150.97;;;-141.28;39.97
12358;BME280;6243;51.244;6.774;2024-01-11T08:38:58;115150.97;;;-141.28;39.60
12358;BME280;6243;51.244;6.774;2024-01-11T08:41:24;115150.97;;;-141.28;39.40
12358;BME280;6243;51.244;6.774;2024-01-11T08:43:49;115150.97;;;-141.28;39.55
12358;BME280;6243;51.244;6.774;2024-01-11T08:46:23;115150.97;;;-141.28;39.47
12358;BME280;6243;51.244;6.774;2024-01-11T08:48:49;115150.97;;;-141.28;39.24
12358;BME280;6243;51.244;6.774;2024-01-11T08:51:14;115150.97;;;-141.28;39.24
12358;BME280;6243;51.244;6.774;2024-01-11T08:53:40;115150.97;;;-141.28;39.88
12358;BME280;6243;51.244;6.774;2024-01-11T08:56:07;115150.97;;;-141.28;39.51
12358;BME280;6243;51.244;6.774;2024-01-11T08:58:32;115150.97;;;-141.28;39.56
12358;BME280;6243;51.244;6.774;2024-01-11T09:00:58;115150.97;;;-141.28;40.14
12358;BME280;6243;51.244;6.774;2024-01-11T09:03:23;115150.97;;;-141.28;39.98
12358;BME280;6243;51.244;6.774;2024-01-11T09:05:49;115150.97;;;-141.28;39.89
12358;BME280;6243;51.244;6.774;2024-01-11T09:08:14;115150.97;;;-141.28;39.89
12358;BME280;6243;51.244;6.774;2024-01-11T09:10:40;115150.97;;;-141.28;39.47
12358;BME280;6243;51.244;6.774;2024-01-11T09:13:07;115150.97;;;-141.28;39.13
12358;BME280;6243;51.244;6.774;2024-01-11T09:15:32;115150.97;;;-141.28;39.19
12358;BME280;6243;51.244;6.774;2024-01-11T09:17:58;115150.97;;;-141.28;39.93
12358;BME280;6243;51.244;6.774;2024-01-11T09:20:24;115150.97;;;-141.28;39.42
12358;BME280;6243;51.244;6.774;2024-01-11T09:22:49;115150.97;;;-141.28;39.77
12358;BME280;6243;51.244;6.774;2024-01-11T09:25:15;115150.97;;;-141.28;41.26
12358;BME280;6243;51.244;6.774;2024-01-11T09:27:40;115150.97;;;-141.28;41.18
12358;BME280;6243;51.244;6.774;2024-01-11T09:30:08;115150.97;;;-141.28;41.16
12358;BME280;6243;51.244;6.774;2024-01-11T09:32:33;115150.97;;;-141.28;41.06
12358;BME280;6243;51.244;6.774;2024-01-11T09:34:59;115150.97;;;-141.28;41.18
12358;BME280;6243;51.244;6.774;2024-01-11T09:37:24;115150.97;;;-141.28;40.52
12358;BME280;6243;51.244;6.774;2024-01-11T09:39:50;115150.97;;;-141.28;41.11
12358;BME280;6243;51.244;6.774;2024-01-11T09:42:15;115150.97;;;-141.28;41.55
12358;BME280;6243;51.244;6.774;2024-01-11T09:44:41;115150.97;;;-141.28;41.75
12358;BME280;6243;51.244;6.774;2024-01-11T09:47:10;115150.97;;;-141.28;41.28
12358;BME280;6243;51.244;6.774;2024-01-11T09:49:36;115150.97;;;-141.28;40.94
12358;BME280;6243;51.244;6.774;2024-01-11T09:52:02;115150.97;;;-141.28;40.99
12358;BME280;6243;51.244;6.774;2024-01-11T09:54:28;115150.97;;;-141.28;41.17
12358;BME280;6243;51.244;6.774;2024-01-11T09:56:54;115150.97;;;-141.28;40.82
12358;BME280;6243;51.244;6.774;2024-01-11T09:59:20;115150.97;;;-141.28;40.94
12358;BME280;6243;51.244;6.774;2024-01-11T10:01:46;115150.97;;;-141.28;39.95
12358;BME280;6243;51.244;6.774;2024-01-11T10:04:14;115150.97;;;-141.28;39.98
12358;BME280;6243;51.244;6.774;2024-01-11T10:06:41;115150.97;;;-141.28;39.52
12358;BME280;6243;51.244;6.774;2024-01-11T10:09:07;115150.97;;;-141.28;39.47
12358;BME280;6243;51.244;6.774;2024-01-11T10:11:32;115150.97;;;-141.28;39.68
12358;BME280;6243;51.244;6.774;2024-01-11T10:13:58;115150.97;;;-141.28;39.10
12358;BME280;6243;51.244;6.774;2024-01-11T10:16:24;115150.97;;;-141.28;38.93
12358;BME280;6243;51.244;6.774;2024-01-11T10:18:51;115150.97;;;-141.28;38.79
12358;BME280;6243;51.244;6.774;2024-01-11T10:21:20;115150.97;;;-141.28;38.73
12358;BME280;6243;51.244;6.774;2024-01-11T10:23:45;115150.97;;;-141.28;38.36
12358;BME280;6243;51.244;6.774;2024-01-11T10:26:11;115150.97;;;-141.28;38.28
12358;BME280;6243;51.244;6.774;2024-01-11T10:28:36;115150.97;;;-141.28;38.03
12358;BME280;6243;51.244;6.774;2024-01-11T10:31:03;115150.97;;;-141.28;37.80
12358;BME280;6243;51.244;6.774;2024-01-11T10:33:28;115150.97;;;-141.28;37.48
12358;BME280;6243;51.244;6.774;2024-01-11T10:35:54;115150.97;;;-141.28;37.24
12358;BME280;6243;51.244;6.774;2024-01-11T10:38:22;115150.97;;;-141.28;36.55
12358;BME280;6243;51.244;6.774;2024-01-11T10:40:52;115150.97;;;-141.28;36.58
12358;BME280;6243;51.244;6.774;2024-01-11T10:43:21;115150.97;;;-141.28;37.06
12358;BME280;6243;51.244;6.774;2024-01-11T10:45:48;115150.97;;;-141.28;36.78
12358;BME280;6243;51.244;6.774;2024-01-11T10:48:15;115150.97;;;-141.28;36.07
12358;BME280;6243;51.244;6.774;2024-01-11T10:50:43;115150.97;;;-141.28;36.73
12358;BME280;6243;51.244;6.774;2024-01-11T10:53:14;115150.97;;;-141.28;36.27
12358;BME280;6243;51.244;6.774;2024-01-11T10:55:44;115150.97;;;-141.28;36.70
12358;BME280;6243;51.244;6.774;2024-01-11T10:58:10;115150.97;;;-141.28;36.14
12358;BME280;6243;51.244;6.774;2024-01-11T11:00:36;115150.97;;;-141.28;36.23
12358;BME280;6243;51.244;6.774;2024-01-11T11:03:03;115150.97;;;-141.28;36.19
12358;BME280;6243;51.244;6.774;2024-01-11T11:05:31;115150.97;;;-141.28;35.87
12358;BME280;6243;51.244;6.774;2024-01-11T11:08:01;115150.97;;;-141.28;36.02
12358;BME280;6243;51.244;6.774;2024-01-11T11:10:27;115150.97;;;-141.28;36.21
12358;BME280;6243;51.244;6.774;2024-01-11T11:12:55;115150.97;;;-141.28;35.69
12358;BME280;6243;51.244;6.774;2024-01-11T11:15:22;115150.97;;;-141.28;35.99
12358;BME280;6243;51.244;6.774;2024-01-11T11:17:49;115150.97;;;-141.28;35.86
12358;BME280;6243;51.244;6.774;2024-01-11T11:20:15;115150.97;;;-141.28;35.97
12358;BME280;6243;51.244;6.774;2024-01-11T11:22:42;115150.97;;;-141.28;36.34
12358;BME280;6243;51.244;6.774;2024-01-11T11:25:08;115150.97;;;-141.28;36.25
12358;BME280;6243;51.244;6.774;2024-01-11T11:27:34;115150.97;;;-141.28;36.32
12358;BME280;6243;51.244;6.774;2024-01-11T11:30:02;115150.97;;;-141.28;36.53
12358;BME280;6243;51.244;6.774;2024-01-11T11:32:38;115150.97;;;-141.28;36.44
12358;BME280;6243;51.244;6.774;2024-01-11T11:35:04;115150.97;;;-141.28;36.44
12358;BME280;6243;51.244;6.774;2024-01-11T11:37:30;115150.97;;;-141.28;36.26
12358;BME280;6243;51.244;6.774;2024-01-11T11:39:57;115150.97;;;-141.28;36.48
12358;BME280;6243;51.244;6.774;2024-01-11T11:42:23;115150.97;;;-141.28;36.48
12358;BME280;6243;51.244;6.774;2024-01-11T11:44:48;115150.97;;;-141.28;36.38
12358;BME280;6243;51.244;6.774;2024-01-11T11:47:22;115150.97;;;-141.28;36.34
12358;BME280;6243;51.244;6.774;2024-01-11T11:49:58;115150.97;;;-141.28;36.63
12358;BME280;6243;51.244;6.774;2024-01-11T11:52:28;115150.97;;;-141.28;36.59
12358;BME280;6243;51.244;6.774;2024-01-11T11:54:55;115150.97;;;-141.28;36.52
12358;BME280;6243;51.244;6.774;2024-01-11T11:57:21;115150.97;;;-141.28;36.73
12358;BME280;6243;51.244;6.774;2024-01-11T11:59:48;115150.97;;;-141.28;36.62
12358;BME280;6243;51.244;6.774;2024-01-11T12:02:16;115150.97;;;-141.28;36.66
12358;BME280;6243;51.244;6.774;2024-01-11T12:04:47;115150.97;;;-141.28;36.42
12358;BME280;6243;51.244;6.774;2024-01-11T12:07:13;115150.97;;;-141.28;36.65
12358;BME280;6243;51.244;6.774;2024-01-11T12:09:39;115150.97;;;-141.28;36.83
12358;BME280;6243;51.244;6.774;2024-01-11T12:12:04;115150.97;;;-141.28;36.51
12358;BME280;6243;51.244;6.774;2024-01-11T12:14:30;115150.97;;;-141.28;36.37
12358;BME280;6243;51.244;6.774;2024-01-11T12:16:56;115150.97;;;-141.28;36.12
12358;BME280;6243;51.244;6.774;2024-01-11T12:19:23;115150.97;;;-141.28;36.00
12358;BME280;6243;51.244;6.774;2024-01-11T12:21:50;115150.97;;;-141.28;36.39
12358;BME280;6243;51.244;6.774;2024-01-11T12:24:16;115150.97;;;-141.28;36.55
12358;BME280;6243;51.244;6.774;2024-01-11T12:26:42;115150.97;;;-141.28;36.53
12358;BME280;6243;51.244;6.774;2024-01-11T12:29:08;115150.97;;;-141.28;36.57
12358;BME280;6243;51.244;6.774;2024-01-11T12:31:34;115150.97;;;-141.28;36.66
12358;BME280;6243;51.244;6.774;2024-01-11T12:33:59;115150.97;;;-141.28;36.78